createdAt,value
2023-05-21T00:01:38.049Z,13.45
2023-05-21T00:03:42.550Z,13.44
2023-05-21T00:05:47.395Z,13.46
2023-05-21T00:07:53.667Z,13.44
2023-05-21T00:09:58.076Z,13.43
2023-05-21T00:12:01.358Z,13.44
2023-05-21T00:14:04.373Z,13.42
2023-05-21T00:16:08.224Z,13.42
2023-05-21T00:18:11.416Z,13.41
2023-05-21T00:20:14.583Z,13.42
2023-05-21T00:22:17.555Z,13.41
2023-05-21T00:24:20.807Z,13.36
2023-05-21T00:26:25.559Z,13.39
2023-05-21T00:28:33.108Z,13.37
2023-05-21T00:30:36.164Z,13.35
2023-05-21T00:32:39.235Z,13.33
2023-05-21T00:34:42.614Z,13.34
2023-05-21T00:36:46.083Z,13.32
2023-05-21T00:38:49.094Z,13.31
2023-05-21T00:40:52.349Z,13.28
2023-05-21T00:42:57.692Z,13.28
2023-05-21T00:45:00.994Z,13.25
2023-05-21T00:47:05.071Z,13.19
2023-05-21T00:49:08.500Z,13.18
2023-05-21T00:51:11.632Z,13.17
2023-05-21T00:53:15.736Z,13.15
2023-05-21T00:55:18.676Z,13.11
2023-05-21T00:57:23.775Z,13.13
2023-05-21T00:59:28.442Z,13.09
2023-05-21T01:01:34.277Z,13.10
2023-05-21T01:03:38.979Z,13.09
2023-05-21T01:05:45.667Z,13.02
2023-05-21T01:07:49.252Z,13.05
2023-05-21T01:09:52.722Z,13.06
2023-05-21T01:11:56.772Z,13.02
2023-05-21T01:13:59.973Z,13.01
2023-05-21T01:16:07.213Z,12.99
2023-05-21T01:18:10.433Z,12.95
2023-05-21T01:20:14.901Z,12.94
2023-05-21T01:22:21.693Z,12.86
2023-05-21T01:24:26.250Z,12.80
2023-05-21T01:26:30.743Z,12.81
2023-05-21T01:28:34.969Z,12.78
2023-05-21T01:30:39.881Z,12.73
2023-05-21T01:32:50.071Z,12.73
2023-05-21T01:35:00.839Z,12.72
2023-05-21T01:37:13.552Z,12.73
2023-05-21T01:39:21.544Z,12.71
2023-05-21T01:41:27.995Z,12.72
2023-05-21T01:43:34.551Z,12.71
2023-05-21T01:45:40.139Z,12.72
2023-05-21T01:47:45.697Z,12.68
2023-05-21T01:49:48.522Z,12.69
2023-05-21T01:51:51.971Z,12.67
2023-05-21T01:53:54.983Z,12.71
2023-05-21T01:55:58.014Z,12.72
2023-05-21T01:58:02.723Z,12.74
2023-05-21T02:00:08.636Z,12.69
2023-05-21T02:02:18.296Z,12.72
2023-05-21T02:04:21.523Z,12.73
2023-05-21T02:06:24.819Z,12.74
2023-05-21T02:08:28.217Z,12.73
2023-05-21T02:10:31.175Z,12.71
2023-05-21T02:12:34.315Z,12.71
2023-05-21T02:14:39.200Z,12.69
2023-05-21T02:16:42.618Z,12.65
2023-05-21T02:18:46.771Z,12.65
2023-05-21T02:20:49.952Z,12.65
2023-05-21T02:22:53.016Z,12.63
2023-05-21T02:24:55.997Z,12.59
2023-05-21T02:26:59.101Z,12.54
2023-05-21T02:29:02.227Z,12.54
2023-05-21T02:31:06.644Z,12.51
2023-05-21T02:33:09.971Z,12.49
2023-05-21T02:35:13.786Z,12.48
2023-05-21T02:37:17.960Z,12.45
2023-05-21T02:39:21.418Z,12.38
2023-05-21T02:41:24.388Z,12.39
2023-05-21T02:43:27.506Z,12.39
2023-05-21T02:45:30.890Z,12.29
2023-05-21T02:47:35.731Z,12.23
2023-05-21T02:49:38.945Z,12.26
2023-05-21T02:51:41.897Z,12.27
2023-05-21T02:53:44.935Z,12.27
2023-05-21T02:55:47.986Z,12.27
2023-05-21T02:57:50.962Z,12.28
2023-05-21T02:59:53.973Z,12.28
2023-05-21T03:01:57.063Z,12.28
2023-05-21T03:04:02.197Z,12.28
2023-05-21T03:06:05.343Z,12.28
2023-05-21T03:08:08.300Z,12.27
2023-05-21T03:10:11.880Z,12.25
2023-05-21T03:12:14.920Z,12.20
2023-05-21T03:14:18.016Z,12.13
2023-05-21T03:16:20.992Z,12.18
2023-05-21T03:18:23.954Z,12.20
2023-05-21T03:20:29.250Z,12.20
2023-05-21T03:22:32.824Z,12.19
2023-05-21T03:24:37.076Z,12.13
2023-05-21T03:26:41.794Z,12.08
2023-05-21T03:28:45.263Z,12.12
2023-05-21T03:30:49.994Z,12.19
2023-05-21T03:33:11.607Z,12.23
2023-05-21T03:35:15.477Z,12.24
2023-05-21T03:37:19.908Z,12.27
2023-05-21T03:39:23.479Z,12.29
2023-05-21T03:41:26.807Z,12.34
2023-05-21T03:43:36.169Z,12.39
2023-05-21T03:45:40.374Z,12.41
2023-05-21T03:48:07.688Z,12.43
2023-05-21T03:50:11.636Z,12.48
2023-05-21T03:52:15.205Z,12.50
2023-05-21T03:54:19.584Z,12.50
2023-05-21T03:56:23.448Z,12.49
2023-05-21T03:58:27.158Z,12.55
2023-05-21T04:00:32.923Z,12.57
2023-05-21T04:02:36.208Z,12.62
2023-05-21T04:04:39.315Z,12.64
2023-05-21T04:06:44.864Z,12.61
2023-05-21T04:08:48.885Z,12.63
2023-05-21T04:10:53.300Z,12.63
2023-05-21T04:12:56.300Z,12.63
2023-05-21T04:14:59.178Z,12.62
2023-05-21T04:17:05.575Z,12.63
2023-05-21T04:19:09.547Z,12.66
2023-05-21T04:21:13.374Z,12.66
2023-05-21T04:23:16.707Z,12.70
2023-05-21T04:25:23.494Z,12.73
2023-05-21T04:27:28.242Z,12.77
2023-05-21T04:29:31.365Z,12.81
2023-05-21T04:31:34.703Z,12.79
2023-05-21T04:33:42.426Z,12.82
2023-05-21T04:35:46.677Z,12.86
2023-05-21T04:37:50.836Z,12.88
2023-05-21T04:39:53.916Z,12.91
2023-05-21T04:41:57.013Z,12.92
2023-05-21T04:44:02.739Z,12.93
2023-05-21T04:46:07.987Z,12.97
2023-05-21T04:48:10.984Z,13.00
2023-05-21T04:50:14.642Z,13.05
2023-05-21T04:52:17.834Z,13.14
2023-05-21T04:54:20.936Z,13.21
2023-05-21T04:56:24.119Z,13.27
2023-05-21T04:58:28.216Z,13.35
2023-05-21T05:00:32.991Z,13.41
2023-05-21T05:02:36.480Z,13.47
2023-05-21T05:04:39.439Z,13.55
2023-05-21T05:06:42.466Z,13.63
2023-05-21T05:08:46.616Z,13.70
2023-05-21T05:10:51.403Z,13.77
2023-05-21T05:12:54.561Z,13.85
2023-05-21T05:14:57.782Z,13.96
2023-05-21T05:17:02.400Z,14.02
2023-05-21T05:19:05.442Z,14.08
2023-05-21T05:21:08.395Z,14.16
2023-05-21T05:23:11.527Z,14.26
2023-05-21T05:25:15.909Z,14.33
2023-05-21T05:27:19.060Z,14.41
2023-05-21T05:29:22.100Z,14.54
2023-05-21T05:31:25.372Z,14.61
2023-05-21T05:33:30.883Z,14.68
2023-05-21T05:35:34.197Z,14.82
2023-05-21T05:37:37.590Z,14.90
2023-05-21T05:39:42.013Z,15.04
2023-05-21T05:41:45.050Z,15.15
2023-05-21T05:43:48.357Z,15.31
2023-05-21T05:45:52.838Z,15.51
2023-05-21T05:47:56.022Z,15.80
2023-05-21T05:50:00.585Z,16.03
2023-05-21T05:52:03.746Z,16.17
2023-05-21T05:54:06.971Z,16.32
2023-05-21T05:56:11.738Z,16.42
2023-05-21T05:58:15.289Z,16.76
2023-05-21T06:00:27.246Z,16.82
2023-05-21T06:02:30.587Z,17.25
2023-05-21T06:04:33.837Z,17.70
2023-05-21T06:06:39.292Z,18.00
2023-05-21T06:08:41.911Z,18.04
2023-05-21T06:10:44.795Z,18.12
2023-05-21T06:12:48.254Z,18.43
2023-05-21T06:14:51.716Z,18.40
2023-05-21T06:16:56.465Z,18.68
2023-05-21T06:19:00.042Z,19.48
2023-05-21T06:21:03.084Z,18.95
2023-05-21T06:23:09.205Z,19.45
2023-05-21T06:25:12.902Z,19.36
2023-05-21T06:27:16.296Z,19.25
2023-05-21T06:29:20.202Z,19.48
2023-05-21T06:31:23.694Z,20.07
2023-05-21T06:33:27.936Z,20.66
2023-05-21T06:35:31.198Z,20.78
2023-05-21T06:37:35.280Z,20.51
2023-05-21T06:39:39.976Z,20.93
2023-05-21T06:41:42.948Z,21.92
2023-05-21T06:44:15.995Z,21.64
2023-05-21T06:46:45.319Z,22.01
2023-05-21T06:48:48.293Z,23.25
2023-05-21T06:50:51.758Z,23.49
2023-05-21T06:52:54.726Z,23.47
2023-05-21T06:54:59.286Z,22.66
2023-05-21T06:57:06.356Z,23.95
2023-05-21T06:59:09.415Z,23.44
2023-05-21T07:01:13.570Z,23.45
2023-05-21T07:03:17.724Z,22.31
2023-05-21T07:05:21.177Z,22.19
2023-05-21T07:07:24.233Z,22.43
2023-05-21T07:09:27.397Z,22.56
2023-05-21T07:11:31.963Z,22.10
2023-05-21T07:13:36.473Z,22.95
2023-05-21T07:15:39.671Z,22.87
2023-05-21T07:17:42.988Z,23.09
2023-05-21T07:19:46.037Z,23.40
2023-05-21T07:21:50.185Z,24.41
2023-05-21T07:23:53.464Z,23.63
2023-05-21T07:25:56.582Z,23.73
2023-05-21T07:28:01.314Z,24.21
2023-05-21T07:30:04.765Z,23.48
2023-05-21T07:32:08.654Z,23.30
2023-05-21T07:34:12.063Z,23.05
2023-05-21T07:36:16.814Z,23.27
2023-05-21T07:38:20.652Z,23.27
2023-05-21T07:40:23.943Z,22.69
2023-05-21T07:42:27.171Z,23.46
2023-05-21T07:44:33.820Z,24.38
2023-05-21T07:46:37.413Z,24.85
2023-05-21T07:48:40.615Z,24.16
2023-05-21T07:50:43.864Z,24.26
2023-05-21T07:52:46.988Z,24.57
2023-05-21T07:54:49.997Z,24.08
2023-05-21T07:56:53.259Z,25.17
2023-05-21T07:59:17.929Z,25.26
2023-05-21T08:01:22.763Z,25.84
2023-05-21T08:03:28.609Z,26.12
2023-05-21T08:05:32.866Z,25.72
2023-05-21T08:07:35.835Z,24.84
2023-05-21T08:09:38.890Z,25.59
2023-05-21T08:11:43.301Z,26.30
2023-05-21T08:13:46.442Z,25.47
2023-05-21T08:15:52.696Z,25.21
2023-05-21T08:17:58.833Z,25.03
2023-05-21T08:20:02.376Z,25.01
2023-05-21T08:22:06.996Z,25.12
2023-05-21T08:24:13.237Z,25.68
2023-05-21T08:26:19.266Z,25.74
2023-05-21T08:28:23.367Z,26.30
2023-05-21T08:30:27.975Z,26.60
2023-05-21T08:32:31.346Z,25.24
2023-05-21T08:34:36.115Z,25.36
2023-05-21T08:37:01.702Z,25.69
2023-05-21T08:39:27.407Z,25.49
2023-05-21T08:41:33.846Z,24.77
2023-05-21T08:43:38.728Z,25.52
2023-05-21T08:45:45.441Z,25.24
2023-05-21T08:47:55.262Z,25.51
2023-05-21T08:50:01.283Z,25.11
2023-05-21T08:52:06.574Z,25.42
2023-05-21T08:54:09.872Z,25.31
2023-05-21T08:56:15.754Z,25.28
2023-05-21T08:58:25.387Z,25.27
2023-05-21T09:00:29.581Z,25.86
2023-05-21T09:02:34.765Z,25.60
2023-05-21T09:04:39.308Z,25.92
2023-05-21T09:06:44.405Z,25.86
2023-05-21T09:08:54.715Z,25.81
2023-05-21T09:11:05.652Z,26.36
2023-05-21T09:13:15.687Z,26.38
2023-05-21T09:15:19.150Z,26.26
2023-05-21T09:17:22.222Z,25.98
2023-05-21T09:19:35.140Z,25.95
2023-05-21T09:21:39.973Z,26.22
2023-05-21T09:24:04.955Z,25.98
2023-05-21T09:26:13.073Z,26.27
2023-05-21T09:28:17.353Z,25.86
2023-05-21T09:30:24.059Z,26.18
2023-05-21T09:32:29.335Z,26.34
2023-05-21T09:34:36.576Z,26.70
2023-05-21T09:36:39.555Z,26.54
2023-05-21T09:38:42.514Z,26.39
2023-05-21T09:40:47.192Z,26.10
2023-05-21T09:42:53.341Z,26.07
2023-05-21T09:44:56.510Z,26.03
2023-05-21T09:47:00.205Z,26.22
2023-05-21T09:49:03.288Z,26.32
2023-05-21T09:51:11.410Z,26.10
2023-05-21T09:53:16.891Z,26.22
2023-05-21T09:55:22.985Z,26.44
2023-05-21T09:57:27.595Z,27.09
2023-05-21T09:59:37.401Z,27.25
2023-05-21T10:01:40.573Z,26.85
2023-05-21T10:03:49.913Z,26.29
2023-05-21T10:05:54.280Z,26.62
2023-05-21T10:08:01.197Z,26.40
2023-05-21T10:10:07.183Z,26.33
2023-05-21T10:12:11.256Z,26.53
2023-05-21T10:14:20.155Z,26.28
2023-05-21T10:16:24.255Z,26.26
2023-05-21T10:18:28.764Z,26.79
2023-05-21T10:20:32.327Z,26.44
2023-05-21T10:22:36.034Z,26.57
2023-05-21T10:24:41.034Z,27.02
2023-05-21T10:26:45.274Z,27.56
2023-05-21T10:28:49.244Z,27.85
2023-05-21T10:30:54.833Z,27.31
2023-05-21T10:32:58.987Z,27.23
2023-05-21T10:35:02.899Z,26.56
2023-05-21T10:37:09.803Z,26.67
2023-05-21T10:39:13.646Z,26.83
2023-05-21T10:41:19.575Z,27.29
2023-05-21T10:43:53.414Z,27.15
2023-05-21T10:46:29.452Z,27.46
2023-05-21T10:48:50.256Z,27.44
2023-05-21T10:51:13.853Z,27.40
2023-05-21T10:53:25.734Z,26.91
2023-05-21T10:55:43.451Z,26.76
2023-05-21T10:58:14.153Z,26.73
2023-05-21T11:00:20.930Z,27.35
2023-05-21T11:02:27.169Z,26.78
2023-05-21T11:04:30.336Z,26.45
2023-05-21T11:06:33.636Z,26.53
2023-05-21T11:08:37.899Z,26.71
2023-05-21T11:10:41.773Z,26.91
2023-05-21T11:13:06.533Z,27.04
2023-05-21T11:15:16.700Z,27.22
2023-05-21T11:17:39.335Z,26.76
2023-05-21T11:19:43.862Z,27.01
2023-05-21T11:21:51.697Z,26.58
2023-05-21T11:23:55.746Z,26.71
2023-05-21T11:26:02.564Z,26.93
2023-05-21T11:28:09.782Z,26.93
2023-05-21T11:30:16.703Z,27.36
2023-05-21T11:32:20.924Z,27.48
2023-05-21T11:34:29.004Z,26.76
2023-05-21T11:36:33.034Z,27.20
2023-05-21T11:38:38.487Z,26.98
2023-05-21T11:40:51.605Z,26.99
2023-05-21T11:42:56.315Z,27.07
2023-05-21T11:45:00.022Z,27.25
2023-05-21T11:47:03.636Z,27.61
2023-05-21T11:49:07.140Z,27.31
2023-05-21T11:51:11.791Z,27.14
2023-05-21T11:53:16.146Z,27.16
2023-05-21T11:55:23.015Z,26.76
2023-05-21T11:57:31.090Z,26.95
2023-05-21T11:59:34.794Z,27.59
2023-05-21T12:01:37.623Z,27.31
2023-05-21T12:03:41.397Z,27.49
2023-05-21T12:05:48.822Z,27.59
2023-05-21T12:07:54.931Z,27.17
2023-05-21T12:09:58.543Z,27.25
2023-05-21T12:12:02.496Z,27.58
2023-05-21T12:14:07.910Z,27.42
2023-05-21T12:16:11.242Z,27.62
2023-05-21T12:18:16.971Z,27.78
2023-05-21T12:20:20.347Z,26.93
2023-05-21T12:22:24.907Z,27.28
2023-05-21T12:24:29.645Z,27.45
2023-05-21T12:26:33.704Z,27.30
2023-05-21T12:28:37.666Z,27.53
2023-05-21T12:30:40.687Z,27.37
2023-05-21T12:32:46.979Z,27.62
2023-05-21T12:34:51.677Z,27.51
2023-05-21T12:36:54.747Z,27.50
2023-05-21T12:38:58.267Z,27.19
2023-05-21T12:41:06.487Z,27.05
2023-05-21T12:43:09.482Z,27.08
2023-05-21T12:45:13.202Z,27.01
2023-05-21T12:47:16.250Z,27.09
2023-05-21T12:49:32.804Z,27.10
2023-05-21T12:51:40.324Z,27.04
2023-05-21T12:53:43.968Z,27.69
2023-05-21T12:55:47.032Z,27.75
2023-05-21T12:58:00.465Z,27.00
2023-05-21T13:00:07.018Z,27.00
2023-05-21T13:02:13.660Z,26.94
2023-05-21T13:04:19.658Z,27.28
2023-05-21T13:06:22.888Z,26.96
2023-05-21T13:08:26.543Z,27.02
2023-05-21T13:10:30.202Z,27.02
2023-05-21T13:12:34.658Z,27.14
2023-05-21T13:14:39.696Z,27.38
2023-05-21T13:16:42.657Z,27.43
2023-05-21T13:18:45.760Z,27.15
2023-05-21T13:20:49.183Z,27.19
2023-05-21T13:22:52.604Z,27.40
2023-05-21T13:24:55.537Z,27.20
2023-05-21T13:26:58.584Z,27.05
2023-05-21T13:29:01.688Z,26.94
2023-05-21T13:31:06.375Z,27.11
2023-05-21T13:33:09.325Z,27.00
2023-05-21T13:35:12.617Z,27.38
2023-05-21T13:37:16.157Z,26.96
2023-05-21T13:39:19.676Z,27.20
2023-05-21T13:41:22.661Z,27.28
2023-05-21T13:43:25.801Z,27.28
2023-05-21T13:45:29.636Z,26.99
2023-05-21T13:47:36.183Z,27.03
2023-05-21T13:49:41.035Z,26.82
2023-05-21T13:51:43.998Z,26.84
2023-05-21T13:53:48.248Z,26.56
2023-05-21T13:55:51.237Z,26.61
2023-05-21T13:57:54.153Z,26.41
2023-05-21T13:59:57.472Z,26.83
2023-05-21T14:02:00.435Z,26.52
2023-05-21T14:04:06.030Z,26.63
2023-05-21T14:06:08.792Z,26.69
2023-05-21T14:08:12.893Z,26.70
2023-05-21T14:10:16.086Z,26.30
2023-05-21T14:12:19.499Z,26.43
2023-05-21T14:14:22.955Z,26.56
2023-05-21T14:16:27.754Z,26.73
2023-05-21T14:18:30.736Z,26.43
2023-05-21T14:20:35.229Z,26.40
2023-05-21T14:22:38.903Z,26.40
2023-05-21T14:24:41.991Z,26.32
2023-05-21T14:26:44.852Z,26.43
2023-05-21T14:28:47.932Z,26.51
2023-05-21T14:30:50.895Z,26.30
2023-05-21T14:32:55.463Z,26.40
2023-05-21T14:35:00.419Z,26.06
2023-05-21T14:37:05.506Z,26.41
2023-05-21T14:39:08.441Z,26.36
2023-05-21T14:41:11.512Z,26.46
2023-05-21T14:43:14.417Z,26.43
2023-05-21T14:45:19.192Z,26.41
2023-05-21T14:47:22.542Z,26.44
2023-05-21T14:49:25.594Z,26.16
2023-05-21T14:51:28.643Z,26.15
2023-05-21T14:53:33.062Z,26.10
2023-05-21T14:55:37.334Z,25.94
2023-05-21T14:57:40.712Z,26.07
2023-05-21T14:59:43.592Z,25.75
2023-05-21T15:01:46.931Z,25.70
2023-05-21T15:03:50.066Z,25.81
2023-05-21T15:05:53.229Z,25.64
2023-05-21T15:07:56.491Z,25.60
2023-05-21T15:10:01.004Z,25.57
2023-05-21T15:12:04.311Z,25.45
2023-05-21T15:14:07.296Z,25.42
2023-05-21T15:16:10.289Z,25.36
2023-05-21T15:18:13.456Z,25.26
2023-05-21T15:20:16.882Z,25.45
2023-05-21T15:22:20.073Z,25.55
2023-05-21T15:24:23.043Z,25.29
2023-05-21T15:26:27.515Z,25.33
2023-05-21T15:28:30.472Z,25.29
2023-05-21T15:30:33.436Z,24.87
2023-05-21T15:32:36.665Z,24.93
2023-05-21T15:34:39.697Z,24.87
2023-05-21T15:36:42.689Z,24.80
2023-05-21T15:38:45.982Z,24.67
2023-05-21T15:40:48.904Z,24.62
2023-05-21T15:42:53.664Z,24.51
2023-05-21T15:44:56.519Z,24.56
2023-05-21T15:46:59.527Z,24.58
2023-05-21T15:49:02.600Z,24.59
2023-05-21T15:51:05.796Z,24.47
2023-05-21T15:53:11.111Z,24.30
2023-05-21T15:55:14.462Z,24.25
2023-05-21T15:57:17.405Z,24.06
2023-05-21T15:59:21.985Z,24.13
2023-05-21T16:01:26.140Z,23.96
2023-05-21T16:03:29.259Z,23.99
2023-05-21T16:05:32.175Z,23.90
2023-05-21T16:07:37.055Z,23.94
2023-05-21T16:09:41.146Z,23.89
2023-05-21T16:11:49.134Z,23.82
2023-05-21T16:13:52.211Z,23.51
2023-05-21T16:15:56.666Z,23.51
2023-05-21T16:17:59.684Z,23.55
2023-05-21T16:20:02.645Z,23.50
2023-05-21T16:22:05.835Z,23.45
2023-05-21T16:24:09.242Z,23.54
2023-05-21T16:26:12.196Z,23.51
2023-05-21T16:28:15.276Z,23.33
2023-05-21T16:30:18.423Z,23.24
2023-05-21T16:32:23.168Z,23.31
2023-05-21T16:34:26.633Z,23.19
2023-05-21T16:36:29.668Z,23.13
2023-05-21T16:38:32.714Z,23.03
2023-05-21T16:40:35.763Z,22.77
2023-05-21T16:42:40.098Z,22.74
2023-05-21T16:44:43.135Z,22.68
2023-05-21T16:46:46.041Z,22.53
2023-05-21T16:48:50.523Z,22.65
2023-05-21T16:50:53.833Z,22.49
2023-05-21T16:52:56.825Z,22.42
2023-05-21T16:54:59.764Z,22.34
2023-05-21T16:57:02.723Z,22.18
2023-05-21T16:59:05.828Z,22.23
2023-05-21T17:01:08.989Z,22.19
2023-05-21T17:03:13.051Z,22.14
2023-05-21T17:05:17.839Z,22.10
2023-05-21T17:07:21.095Z,22.09
2023-05-21T17:09:24.268Z,21.96
2023-05-21T17:11:27.368Z,21.68
2023-05-21T17:13:30.363Z,21.85
2023-05-21T17:15:33.500Z,21.77
2023-05-21T17:17:36.582Z,21.55
2023-05-21T17:19:39.464Z,21.62
2023-05-21T17:21:43.997Z,21.56
2023-05-21T17:23:46.880Z,21.50
2023-05-21T17:25:50.135Z,21.48
2023-05-21T17:27:53.568Z,21.34
2023-05-21T17:29:57.565Z,21.19
2023-05-21T17:32:00.898Z,21.15
2023-05-21T17:34:04.113Z,21.15
2023-05-21T17:36:07.310Z,21.07
2023-05-21T17:38:12.291Z,21.10
2023-05-21T17:40:15.497Z,21.07
2023-05-21T17:42:18.898Z,21.00
2023-05-21T17:44:22.052Z,20.97
2023-05-21T17:46:24.927Z,20.91
2023-05-21T17:48:27.944Z,20.87
2023-05-21T17:50:30.934Z,20.78
2023-05-21T17:52:33.761Z,20.71
2023-05-21T17:54:38.111Z,20.56
2023-05-21T17:56:41.033Z,20.53
2023-05-21T17:58:43.893Z,20.42
2023-05-21T18:00:46.782Z,20.33
2023-05-21T18:02:49.691Z,20.20
2023-05-21T18:04:52.774Z,20.07
2023-05-21T18:06:56.206Z,20.08
2023-05-21T18:08:59.385Z,20.00
2023-05-21T18:11:03.931Z,19.90
2023-05-21T18:13:06.832Z,19.76
2023-05-21T18:15:10.502Z,19.73
2023-05-21T18:17:13.503Z,19.54
2023-05-21T18:19:16.651Z,19.54
2023-05-21T18:21:19.564Z,19.47
2023-05-21T18:23:22.554Z,19.28
2023-05-21T18:25:25.362Z,19.24
2023-05-21T18:27:29.802Z,19.15
2023-05-21T18:29:32.713Z,18.95
2023-05-21T18:31:36.048Z,18.90
2023-05-21T18:33:38.971Z,18.90
2023-05-21T18:35:42.246Z,18.78
2023-05-21T18:37:47.027Z,18.75
2023-05-21T18:39:50.102Z,18.69
2023-05-21T18:42:01.639Z,18.64
2023-05-21T18:44:16.452Z,18.41
2023-05-21T18:46:19.779Z,17.99
2023-05-21T18:48:22.991Z,17.66
2023-05-21T18:50:26.063Z,17.50
2023-05-21T18:52:29.171Z,17.38
2023-05-21T18:54:32.224Z,17.48
2023-05-21T18:56:35.199Z,17.21
2023-05-21T18:58:38.951Z,17.03
2023-05-21T19:00:43.677Z,16.98
2023-05-21T19:02:47.304Z,16.88
2023-05-21T19:04:50.562Z,17.04
2023-05-21T19:06:53.434Z,17.09
2023-05-21T19:08:56.404Z,17.03
2023-05-21T19:10:59.326Z,16.90
2023-05-21T19:13:03.365Z,16.98
2023-05-21T19:15:08.564Z,16.82
2023-05-21T19:17:13.953Z,16.55
2023-05-21T19:19:17.048Z,16.61
2023-05-21T19:21:20.267Z,16.47
2023-05-21T19:23:24.962Z,16.21
2023-05-21T19:25:28.025Z,16.24
2023-05-21T19:27:30.981Z,16.24
2023-05-21T19:29:34.246Z,16.11
2023-05-21T19:31:37.556Z,16.02
2023-05-21T19:33:42.131Z,16.05
2023-05-21T19:35:45.124Z,15.98
2023-05-21T19:37:48.097Z,15.81
2023-05-21T19:39:50.896Z,15.83
2023-05-21T19:41:53.936Z,15.88
2023-05-21T19:43:56.909Z,15.87
2023-05-21T19:45:59.906Z,15.67
2023-05-21T19:48:03.271Z,15.62
2023-05-21T19:50:09.741Z,15.40
2023-05-21T19:52:12.812Z,15.28
2023-05-21T19:54:15.955Z,15.15
2023-05-21T19:56:19.078Z,15.11
2023-05-21T19:58:27.235Z,15.04
2023-05-21T20:00:30.394Z,15.08
2023-05-21T20:02:34.887Z,15.11
2023-05-21T20:04:37.898Z,15.08
2023-05-21T20:06:42.478Z,14.95
2023-05-21T20:08:45.364Z,14.65
2023-05-21T20:10:51.357Z,14.84
2023-05-21T20:12:54.803Z,14.93
2023-05-21T20:14:59.756Z,14.95
2023-05-21T20:17:02.878Z,14.99
2023-05-21T20:19:06.139Z,14.97
2023-05-21T20:21:09.189Z,14.92
2023-05-21T20:23:14.139Z,14.81
2023-05-21T20:25:17.023Z,14.81
2023-05-21T20:27:20.322Z,14.82
2023-05-21T20:29:23.703Z,14.80
2023-05-21T20:31:27.739Z,14.80
2023-05-21T20:33:32.291Z,14.67
2023-05-21T20:35:35.393Z,14.67
2023-05-21T20:37:38.571Z,14.62
2023-05-21T20:39:45.484Z,14.68
2023-05-21T20:41:48.718Z,14.65
2023-05-21T20:43:52.678Z,14.59
2023-05-21T20:46:00.056Z,14.58
2023-05-21T20:48:03.823Z,14.54
2023-05-21T20:50:07.461Z,14.42
2023-05-21T20:52:10.530Z,14.44
2023-05-21T20:54:13.464Z,14.42
2023-05-21T20:56:29.835Z,14.43
2023-05-21T20:58:43.260Z,14.43
2023-05-21T21:00:46.909Z,14.43
2023-05-21T21:02:49.991Z,14.44
2023-05-21T21:04:54.163Z,14.46
2023-05-21T21:06:57.025Z,14.45
2023-05-21T21:08:59.999Z,14.41
2023-05-21T21:11:02.983Z,14.41
2023-05-21T21:13:07.548Z,14.28
2023-05-21T21:15:10.804Z,14.37
2023-05-21T21:17:13.748Z,14.39
2023-05-21T21:19:16.586Z,14.43
2023-05-21T21:21:19.688Z,14.35
2023-05-21T21:23:25.340Z,14.37
2023-05-21T21:25:28.261Z,14.36
2023-05-21T21:27:31.312Z,14.36
2023-05-21T21:29:35.876Z,14.34
2023-05-21T21:31:38.973Z,14.35
2023-05-21T21:33:42.140Z,14.30
2023-05-21T21:35:45.105Z,14.31
2023-05-21T21:37:48.115Z,14.27
2023-05-21T21:39:51.167Z,14.23
2023-05-21T21:41:54.199Z,14.19
2023-05-21T21:43:57.324Z,14.17
2023-05-21T21:46:01.873Z,14.18
2023-05-21T21:48:05.210Z,14.19
2023-05-21T21:50:09.177Z,14.15
2023-05-21T21:52:12.572Z,14.14
2023-05-21T21:54:15.595Z,14.08
2023-05-21T21:56:18.595Z,14.05
2023-05-21T21:58:21.906Z,14.04
2023-05-21T22:00:27.021Z,14.02
2023-05-21T22:02:31.456Z,14.02
2023-05-21T22:04:34.354Z,13.96
2023-05-21T22:06:39.297Z,13.96
2023-05-21T22:08:42.279Z,13.95
2023-05-21T22:10:45.847Z,13.94
2023-05-21T22:12:48.755Z,13.89
2023-05-21T22:14:51.777Z,13.85
2023-05-21T22:16:55.540Z,13.81
2023-05-21T22:19:00.240Z,13.77
2023-05-21T22:21:04.182Z,13.73
2023-05-21T22:23:07.197Z,13.69
2023-05-21T22:25:10.427Z,13.65
2023-05-21T22:27:13.595Z,13.59
2023-05-21T22:29:16.517Z,13.54
2023-05-21T22:31:19.669Z,13.48
2023-05-21T22:33:22.940Z,13.42
2023-05-21T22:35:27.399Z,13.38
2023-05-21T22:37:30.220Z,13.34
2023-05-21T22:39:33.225Z,13.29
2023-05-21T22:41:36.286Z,13.26
2023-05-21T22:43:39.293Z,13.23
2023-05-21T22:45:42.546Z,13.17
2023-05-21T22:47:45.690Z,13.15
2023-05-21T22:49:48.548Z,13.10
2023-05-21T22:51:54.634Z,13.05
2023-05-21T22:53:57.508Z,12.95
2023-05-21T22:56:00.868Z,12.87
2023-05-21T22:58:03.766Z,12.81
2023-05-21T23:00:08.097Z,12.77
2023-05-21T23:02:11.253Z,12.76
2023-05-21T23:04:15.492Z,12.73
2023-05-21T23:06:18.663Z,12.68
2023-05-21T23:08:23.109Z,12.59
2023-05-21T23:10:26.470Z,12.59
2023-05-21T23:12:29.582Z,12.63
2023-05-21T23:14:32.685Z,12.60
2023-05-21T23:16:35.677Z,12.58
2023-05-21T23:18:40.476Z,12.54
2023-05-21T23:20:44.008Z,12.55
2023-05-21T23:22:46.896Z,12.53
2023-05-21T23:24:51.740Z,12.51
2023-05-21T23:26:56.967Z,12.49
2023-05-21T23:28:59.869Z,12.48
2023-05-21T23:31:03.138Z,12.45
2023-05-21T23:33:06.901Z,12.43
2023-05-21T23:35:10.729Z,12.42
2023-05-21T23:37:13.774Z,12.41
2023-05-21T23:39:16.790Z,12.40
2023-05-21T23:41:21.393Z,12.35
2023-05-21T23:43:24.364Z,12.35
2023-05-21T23:45:27.417Z,12.33
2023-05-21T23:47:30.598Z,12.33
2023-05-21T23:49:33.677Z,12.32
2023-05-21T23:51:36.770Z,12.28
2023-05-21T23:53:39.777Z,12.25
2023-05-21T23:55:42.773Z,12.23
2023-05-21T23:57:47.121Z,12.18
2023-05-21T23:59:50.078Z,12.18
